Time;durP1;ratioP1;P1;durP2;ratioP2;P2;SDS_P1;SDS_P2;PMS_P1;PMS_P2;Temp;Humidity;BMP_temperature;BMP_pressure;BME280_temperature;BME280_humidity;BME280_pressure;Samples;Min_cycle;Max_cycle;Signal;HPM_P1;HPM_P2
2022/06/26 00:02:16;;;;;;;4.78;3.50;;;;;;;16.72;100.00;100858.06;1741609;82;21018;-92
2022/06/26 00:04:44;;;;;;;4.97;3.30;;;;;;;16.72;100.00;100860.69;1741372;81;21463;-91
2022/06/26 00:07:11;;;;;;;4.53;3.27;;;;;;;16.72;100.00;100856.75;1741450;82;21982;-91
2022/06/26 00:09:38;;;;;;;6.30;4.00;;;;;;;16.75;100.00;100866.13;1741062;82;21126;-92
2022/06/26 00:12:06;;;;;;;7.55;3.50;;;;;;;16.78;100.00;100864.53;1741614;81;21009;-93
2022/06/26 00:14:33;;;;;;;3.80;3.08;;;;;;;16.81;100.00;100859.80;1741192;82;21089;-94
2022/06/26 00:17:02;;;;;;;4.40;2.87;;;;;;;16.82;100.00;100863.24;1741021;82;21048;-92
2022/06/26 00:19:29;;;;;;;4.47;3.45;;;;;;;16.82;100.00;100872.45;1733179;82;21123;-92
2022/06/26 00:21:56;;;;;;;6.05;3.80;;;;;;;16.83;100.00;100864.90;1741448;81;21326;-92
2022/06/26 00:24:24;;;;;;;5.58;3.45;;;;;;;16.84;100.00;100862.11;1741049;82;21069;-91
2022/06/26 00:26:51;;;;;;;5.92;3.20;;;;;;;16.85;100.00;100859.01;1741316;82;21011;-92
2022/06/26 00:29:18;;;;;;;5.62;3.95;;;;;;;16.86;100.00;100865.92;1741043;82;21011;-91
2022/06/26 00:31:45;;;;;;;4.55;3.37;;;;;;;16.89;100.00;100862.97;1741306;82;21104;-91
2022/06/26 00:34:12;;;;;;;4.42;3.50;;;;;;;16.91;100.00;100866.28;1741339;81;21159;-91
2022/06/26 00:36:40;;;;;;;4.15;3.75;;;;;;;16.90;100.00;100875.65;1741309;82;21081;-91
2022/06/26 00:39:07;;;;;;;4.72;3.20;;;;;;;16.88;100.00;100874.47;1723816;81;21043;-92
2022/06/26 00:41:34;;;;;;;5.25;3.70;;;;;;;16.90;100.00;100870.39;1765860;80;21088;-91
2022/06/26 00:44:12;;;;;;;3.83;3.42;;;;;;;16.93;100.00;100873.58;1779551;80;20932;-91
2022/06/26 00:46:41;;;;;;;5.30;3.50;;;;;;;16.97;100.00;100878.05;1772244;80;21260;-91
2022/06/26 00:49:09;;;;;;;3.33;2.95;;;;;;;17.00;100.00;100882.52;1774625;80;21454;-91
2022/06/26 00:51:46;;;;;;;3.47;3.17;;;;;;;17.03;100.00;100881.37;1774684;80;21054;-91
2022/06/26 00:54:15;;;;;;;4.22;3.12;;;;;;;17.04;100.00;100884.35;1766932;79;21023;-91
2022/06/26 00:56:42;;;;;;;6.42;3.17;;;;;;;17.09;100.00;100881.27;1768492;80;21035;-93
2022/06/26 00:59:10;;;;;;;7.33;3.72;;;;;;;17.12;100.00;100886.20;1768203;79;21153;-91
2022/06/26 01:01:37;;;;;;;4.87;3.33;;;;;;;17.15;100.00;100885.92;1768617;81;21549;-92
2022/06/26 01:04:05;;;;;;;3.67;3.27;;;;;;;17.14;100.00;100879.84;1779687;80;20958;-91
2022/06/26 01:06:33;;;;;;;3.40;3.10;;;;;;;17.14;100.00;100880.31;1786788;80;20935;-91
2022/06/26 01:09:01;;;;;;;3.70;3.40;;;;;;;17.13;100.00;100876.03;1786698;80;21563;-91
2022/06/26 01:11:29;;;;;;;4.37;3.35;;;;;;;17.15;100.00;100874.08;1786936;80;21793;-91
2022/06/26 01:13:58;;;;;;;3.35;2.95;;;;;;;17.14;100.00;100869.80;1786707;80;21476;-91
2022/06/26 01:16:26;;;;;;;3.98;3.27;;;;;;;17.13;100.00;100866.34;1786780;80;21049;-93
2022/06/26 01:18:56;;;;;;;4.87;3.52;;;;;;;17.12;100.00;100868.63;1747553;79;48049;-92
2022/06/26 01:21:25;;;;;;;4.85;3.35;;;;;;;17.10;100.00;100876.35;1763741;79;21023;-92
2022/06/26 01:23:54;;;;;;;4.10;3.50;;;;;;;17.09;100.00;100870.75;1768727;79;21147;-92
2022/06/26 01:26:22;;;;;;;5.08;3.58;;;;;;;17.05;100.00;100871.55;1780036;80;21033;-91
2022/06/26 01:28:49;;;;;;;4.22;3.27;;;;;;;17.01;100.00;100867.08;1787017;80;21496;-91
2022/06/26 01:31:19;;;;;;;5.10;3.62;;;;;;;16.94;100.00;100856.82;1786809;80;20978;-91
2022/06/26 01:33:50;;;;;;;6.15;3.55;;;;;;;16.91;100.00;100859.71;1778727;80;21056;-90
2022/06/26 01:36:17;;;;;;;5.83;3.40;;;;;;;16.87;100.00;100857.87;1768350;79;21217;-91
2022/06/26 01:38:45;;;;;;;5.97;3.40;;;;;;;16.85;100.00;100856.38;1759773;81;21507;-92
2022/06/26 01:41:12;;;;;;;4.53;3.25;;;;;;;16.84;100.00;100863.92;1756845;81;21088;-92
2022/06/26 01:43:40;;;;;;;4.22;3.50;;;;;;;16.83;100.00;100860.95;1757680;81;20999;-91
2022/06/26 01:46:07;;;;;;;4.85;3.12;;;;;;;16.83;100.00;100852.56;1759189;81;21489;-91
2022/06/26 01:48:39;;;;;;;3.83;2.80;;;;;;;16.85;100.00;100853.75;1757698;81;21294;-91
2022/06/26 01:51:08;;;;;;;3.25;2.92;;;;;;;16.87;100.00;100858.34;1756733;81;21095;-91
2022/06/26 01:53:37;;;;;;;4.83;3.20;;;;;;;16.88;100.00;100858.69;1756724;81;21048;-94
2022/06/26 01:56:05;;;;;;;3.52;3.22;;;;;;;16.91;100.00;100858.39;1757014;81;21001;-92
2022/06/26 01:58:35;;;;;;;3.55;3.25;;;;;;;16.93;100.00;100861.74;1756809;81;21032;-92
2022/06/26 02:01:03;;;;;;;3.47;3.02;;;;;;;16.96;100.00;100866.68;1757025;81;21760;-92
2022/06/26 02:03:31;;;;;;;4.67;3.50;;;;;;;16.97;100.00;100868.84;1756697;81;21084;-92
2022/06/26 02:05:59;;;;;;;4.62;3.00;;;;;;;16.99;100.00;100865.55;1756803;81;21056;-93
2022/06/26 02:08:26;;;;;;;3.50;2.98;;;;;;;16.98;100.00;100873.94;1756597;81;21028;-92
2022/06/26 02:13:42;;;;;;;3.35;3.12;;;;;;;17.01;100.00;100873.65;1758031;81;21262;-92
2022/06/26 02:16:21;;;;;;;3.70;3.25;;;;;;;17.06;100.00;100873.20;1750761;81;21035;-92
2022/06/26 02:18:53;;;;;;;6.50;3.15;;;;;;;17.11;100.00;100885.40;1755196;81;21045;-94
2022/06/26 02:21:24;;;;;;;5.42;3.27;;;;;;;17.16;100.00;100881.81;1756696;81;21577;-91
2022/06/26 02:23:55;;;;;;;3.35;3.05;;;;;;;17.23;100.00;100885.98;1755360;81;21526;-90
2022/06/26 02:26:23;;;;;;;6.33;3.08;;;;;;;17.28;100.00;100891.61;1750863;81;21105;-91
2022/06/26 02:28:52;;;;;;;3.58;3.27;;;;;;;17.33;100.00;100890.67;1755602;81;20931;-90
2022/06/26 02:31:20;;;;;;;4.90;3.42;;;;;;;17.39;100.00;100885.77;1758119;81;20975;-91
2022/06/26 02:33:48;;;;;;;3.85;2.98;;;;;;;17.44;100.00;100880.86;1758016;81;21340;-90
2022/06/26 02:36:16;;;;;;;6.12;3.27;;;;;;;17.49;100.00;100886.51;1758263;81;22044;-90
2022/06/26 02:38:43;;;;;;;3.30;3.00;;;;;;;17.53;100.00;100875.98;1758065;81;21164;-91
2022/06/26 02:41:11;;;;;;;3.85;3.27;;;;;;;17.57;100.00;100876.50;1759199;81;21054;-90
2022/06/26 02:43:38;;;;;;;3.62;3.20;;;;;;;17.61;100.00;100882.62;1759227;80;21647;-91
2022/06/26 02:46:07;;;;;;;3.70;3.05;;;;;;;17.67;100.00;100887.77;1758873;81;21050;-93
2022/06/26 02:48:34;;;;;;;3.87;3.47;;;;;;;17.71;100.00;100892.23;1758869;81;21062;-93
2022/06/26 02:51:01;;;;;;;3.95;3.08;;;;;;;17.74;100.00;100894.06;1734760;81;21743;-92
2022/06/26 02:53:28;;;;;;;6.10;3.77;;;;;;;17.81;100.00;100900.86;1758268;81;21071;-92
2022/06/26 02:55:56;;;;;;;4.90;3.50;;;;;;;17.88;100.00;100897.93;1758027;81;21059;-91
2022/06/26 02:58:24;;;;;;;5.15;3.47;;;;;;;17.93;100.00;100894.33;1758276;81;21020;-92
2022/06/26 03:00:57;;;;;;;3.87;3.42;;;;;;;18.00;100.00;100902.47;1758005;81;21087;-92
2022/06/26 03:03:24;;;;;;;4.60;3.80;;;;;;;18.05;100.00;100895.41;1758423;81;21123;-91
2022/06/26 03:05:52;;;;;;;5.22;4.00;;;;;;;18.04;100.00;100895.88;1757968;81;21558;-92
2022/06/26 03:08:20;;;;;;;6.22;3.70;;;;;;;18.05;100.00;100900.17;1754532;81;21098;-91
2022/06/26 03:10:50;;;;;;;6.25;4.33;;;;;;;18.06;100.00;100901.02;1757116;81;21559;-91
2022/06/26 03:13:17;;;;;;;5.03;3.60;;;;;;;18.08;100.00;100902.98;1756827;81;20964;-91
2022/06/26 03:15:46;;;;;;;4.87;3.52;;;;;;;18.10;100.00;100906.30;1756688;81;21157;-92
2022/06/26 03:18:15;;;;;;;4.20;3.75;;;;;;;18.11;100.00;100900.05;1749683;81;21166;-91
2022/06/26 03:20:43;;;;;;;11.65;7.70;;;;;;;18.15;100.00;100907.14;1752906;80;22183;-91
2022/06/26 03:23:11;;;;;;;9.65;6.60;;;;;;;18.18;100.00;100898.92;1759188;80;21007;-92
2022/06/26 03:25:39;;;;;;;7.47;5.17;;;;;;;18.20;100.00;100904.84;1758950;81;21074;-92
2022/06/26 03:28:06;;;;;;;4.53;3.92;;;;;;;18.21;100.00;100905.18;1757128;81;21137;-94
2022/06/26 03:30:35;;;;;;;9.58;4.75;;;;;;;18.20;100.00;100901.73;1752175;81;21051;-92
2022/06/26 03:33:03;;;;;;;9.38;5.80;;;;;;;18.21;100.00;100907.34;1756963;81;21023;-92
2022/06/26 03:35:32;;;;;;;9.38;5.67;;;;;;;18.25;100.00;100903.39;1756874;81;20968;-92
2022/06/26 03:38:01;;;;;;;8.10;6.10;;;;;;;18.28;100.00;100903.56;1757034;80;21190;-92
2022/06/26 03:40:29;;;;;;;8.48;6.10;;;;;;;18.33;100.00;100899.98;1756880;81;21198;-91
2022/06/26 03:42:56;;;;;;;7.92;6.00;;;;;;;18.38;100.00;100908.72;1710635;82;21568;-91
2022/06/26 03:45:24;;;;;;;11.65;4.60;;;;;;;18.43;100.00;100905.92;1731263;82;20956;-91
2022/06/26 03:47:53;;;;;;;4.70;3.87;;;;;;;18.49;100.00;100907.59;1731698;82;21599;-91
2022/06/26 03:50:20;;;;;;;4.87;4.17;;;;;;;18.54;100.00;100907.94;1731837;82;21010;-91
2022/06/26 03:52:49;;;;;;;4.75;4.10;;;;;;;18.60;100.00;100912.56;1748705;81;21143;-91
2022/06/26 03:55:20;;;;;;;6.20;4.42;;;;;;;18.70;100.00;100921.67;1757283;81;21005;-92
2022/06/26 03:57:51;;;;;;;4.40;4.00;;;;;;;18.80;100.00;100914.92;1757446;81;21060;-91
2022/06/26 04:00:23;;;;;;;4.95;4.47;;;;;;;18.95;100.00;100918.60;1757132;81;21021;-91
2022/06/26 04:02:51;;;;;;;4.30;3.90;;;;;;;19.11;100.00;100918.28;1757718;81;21083;-91
2022/06/26 04:05:19;;;;;;;4.33;3.92;;;;;;;19.25;100.00;100917.63;1751636;81;21812;-91
2022/06/26 04:07:46;;;;;;;4.50;4.10;;;;;;;19.40;100.00;100913.83;1722000;81;21076;-91
2022/06/26 04:10:17;;;;;;;5.03;4.00;;;;;;;19.55;100.00;100912.64;1752408;81;20993;-90
2022/06/26 04:12:44;;;;;;;6.30;3.90;;;;;;;19.66;100.00;100916.77;1757539;81;20996;-90
2022/06/26 04:15:40;;;;;;;4.60;4.20;;;;;;;19.78;100.00;100914.61;1758941;81;21539;-92
2022/06/26 04:18:08;;;;;;;6.58;4.03;;;;;;;19.88;100.00;100912.61;1741093;81;21091;-91
2022/06/26 04:20:43;;;;;;;4.60;4.20;;;;;;;19.97;100.00;100905.50;1758619;81;21094;-91
2022/06/26 04:23:12;;;;;;;6.17;4.47;;;;;;;20.07;100.00;100898.17;1732195;81;21020;-91
2022/06/26 04:25:41;;;;;;;5.03;4.53;;;;;;;20.20;100.00;100891.02;1755090;80;21060;-91
2022/06/26 04:28:09;;;;;;;8.00;3.83;;;;;;;20.32;100.00;100887.48;1757055;81;21001;-91
2022/06/26 04:30:40;;;;;;;4.87;4.40;;;;;;;20.43;100.00;100882.34;1752809;81;21156;-91
2022/06/26 04:33:09;;;;;;;5.37;4.00;;;;;;;20.54;100.00;100888.53;1756841;81;21494;-90
2022/06/26 04:35:38;;;;;;;5.85;4.08;;;;;;;20.63;100.00;100874.27;1757397;81;21269;-90
2022/06/26 04:38:07;;;;;;;4.95;4.45;;;;;;;20.72;100.00;100876.34;1748078;81;21752;-90
2022/06/26 04:40:41;;;;;;;5.33;4.33;;;;;;;20.83;100.00;100884.91;1746024;82;21046;-91
2022/06/26 04:43:38;;;;;;;5.03;4.10;;;;;;;20.92;100.00;100883.34;1740584;82;21144;-90
2022/06/26 04:47:11;;;;;;;6.55;4.42;;;;;;;21.01;100.00;100878.83;1713969;83;21001;-90
2022/06/26 04:54:17;;;;;;;5.28;4.42;;;;;;;21.23;100.00;100890.87;1712743;83;21019;-90
2022/06/26 04:57:25;;;;;;;4.72;4.33;;;;;;;21.41;100.00;100890.06;1712628;83;21097;-91
2022/06/26 04:59:53;;;;;;;5.05;4.55;;;;;;;21.50;100.00;100904.55;1712849;83;21112;-90
2022/06/26 05:02:20;;;;;;;4.87;4.12;;;;;;;21.56;100.00;100902.49;1712524;83;21047;-90
2022/06/26 05:05:06;;;;;;;6.50;3.85;;;;;;;21.62;100.00;100903.12;1709615;82;21061;-91
2022/06/26 05:07:47;;;;;;;9.18;4.30;;;;;;;21.69;100.00;100905.36;1728569;82;20986;-90
2022/06/26 05:10:14;;;;;;;4.10;3.47;;;;;;;21.78;100.00;100903.95;1743202;82;21053;-90
2022/06/26 05:12:53;;;;;;;5.05;4.25;;;;;;;21.88;100.00;100900.53;1733735;81;21321;-92
2022/06/26 05:15:28;;;;;;;4.33;3.92;;;;;;;21.97;100.00;100901.25;1691335;82;21062;-90
2022/06/26 05:17:55;;;;;;;7.25;4.40;;;;;;;22.05;100.00;100901.98;1736537;82;21057;-91
2022/06/26 05:24:45;;;;;;;4.60;4.20;;;;;;;22.18;100.00;100895.19;1743762;81;20978;-90
2022/06/26 05:27:41;;;;;;;5.58;4.05;;;;;;;22.24;100.00;100889.14;1744025;81;21149;-90
2022/06/26 05:30:12;;;;;;;6.50;3.75;;;;;;;22.30;100.00;100892.39;1740916;82;21076;-91
2022/06/26 05:33:10;;;;;;;7.90;3.90;;;;;;;22.36;100.00;100887.66;1743816;82;21059;-92
2022/06/26 05:43:25;;;;;;;8.38;4.10;;;;;;;22.65;100.00;100895.75;1707892;81;21052;-93
2022/06/26 05:45:53;;;;;;;4.67;4.28;;;;;;;22.76;100.00;100889.13;1721896;83;20955;-92
2022/06/26 05:48:25;;;;;;;5.37;3.80;;;;;;;22.86;100.00;100892.29;1709962;82;21516;-92
2022/06/26 05:51:09;;;;;;;4.33;3.95;;;;;;;22.98;100.00;100894.73;1716417;82;21472;-92
2022/06/26 05:53:43;;;;;;;4.83;3.87;;;;;;;23.05;100.00;100889.98;1719150;83;21018;-91
2022/06/26 06:00:14;;;;;;;5.17;4.17;;;;;;;23.18;100.00;100890.63;1729368;83;21026;-91
2022/06/26 06:07:03;;;;;;;4.40;4.10;;;;;;;23.34;100.00;100890.87;1687447;85;21681;-91
2022/06/26 06:09:37;;;;;;;6.30;4.33;;;;;;;23.42;100.00;100872.94;1687473;85;21496;-92
2022/06/26 06:24:17;;;;;;;4.17;3.87;;;;;;;23.67;100.00;100882.30;1687399;85;21022;-92
2022/06/26 06:26:44;;;;;;;4.50;4.10;;;;;;;23.78;100.00;100881.73;1687206;85;21108;-92
2022/06/26 06:29:19;;;;;;;4.92;4.50;;;;;;;23.88;100.00;100882.20;1683924;85;21899;-91
2022/06/26 06:31:49;;;;;;;6.37;4.40;;;;;;;23.99;100.00;100884.02;1691187;83;21055;-92
2022/06/26 06:34:22;;;;;;;5.15;4.15;;;;;;;24.04;100.00;100891.70;1652314;85;21131;-91
2022/06/26 06:36:50;;;;;;;4.65;4.25;;;;;;;24.10;100.00;100880.78;1702935;83;21077;-93
2022/06/26 06:39:17;;;;;;;4.92;4.00;;;;;;;24.15;100.00;100885.02;1704274;82;21035;-92
2022/06/26 06:42:14;;;;;;;4.70;4.20;;;;;;;24.21;100.00;100886.87;1703703;83;21173;-92
2022/06/26 06:44:41;;;;;;;4.65;4.15;;;;;;;24.25;100.00;100882.77;1673093;85;20938;-92
2022/06/26 06:47:27;;;;;;;4.37;3.98;;;;;;;24.28;100.00;100883.41;1680863;84;20990;-92
2022/06/26 06:49:56;;;;;;;5.20;4.15;;;;;;;24.36;100.00;100886.69;1649977;84;21515;-94
2022/06/26 06:52:23;;;;;;;5.10;4.25;;;;;;;24.45;100.00;100894.49;1700402;83;21009;-93
2022/06/26 06:54:52;;;;;;;4.65;4.25;;;;;;;24.49;100.00;100889.09;1700150;84;21159;-91
2022/06/26 06:57:25;;;;;;;4.35;4.00;;;;;;;24.49;100.00;100885.91;1699750;83;21071;-91
2022/06/26 06:59:57;;;;;;;4.30;3.90;;;;;;;24.49;100.00;100890.42;1673886;84;21591;-92
2022/06/26 07:02:24;;;;;;;7.22;4.10;;;;;;;24.52;100.00;100884.19;1676089;83;20981;-91
2022/06/26 07:12:36;;;;;;;5.85;4.12;;;;;;;24.77;100.00;100880.98;1701742;84;21018;-90
2022/06/26 07:30:19;;;;;;;4.10;3.70;;;;;;;25.12;100.00;100869.31;1673517;84;21507;-91
2022/06/26 07:37:20;;;;;;;4.05;3.70;;;;;;;25.39;100.00;100875.98;1673534;85;21091;-90
2022/06/26 07:47:55;;;;;;;5.85;3.62;;;;;;;25.46;100.00;100872.27;1703064;82;21108;-91
2022/06/26 07:54:45;;;;;;;4.12;3.60;;;;;;;25.63;100.00;100873.98;1754451;81;21020;-90
2022/06/26 08:01:17;;;;;;;4.78;3.85;;;;;;;25.69;100.00;100865.64;1754556;81;21917;-92
2022/06/26 08:03:48;;;;;;;5.20;3.95;;;;;;;25.86;100.00;100852.67;1742959;82;21531;-92
2022/06/26 08:06:21;;;;;;;;;;;;;;;25.96;100.00;100861.55;1736603;82;21106;-90
2022/06/26 08:09:25;;;;;;;8.53;3.62;;;;;;;26.02;100.00;100867.37;1735587;81;20186;-90
2022/06/26 08:12:32;;;;;;;5.50;4.00;;;;;;;26.09;100.00;100867.37;1727388;80;20999;-91
2022/06/26 08:19:15;;;;;;;4.70;4.00;;;;;;;26.23;100.00;100871.61;1741528;82;20992;-92
2022/06/26 08:22:29;;;;;;;3.90;3.60;;;;;;;26.27;100.00;100866.66;1716313;82;20991;-90
2022/06/26 08:25:00;;;;;;;3.95;3.65;;;;;;;26.25;100.00;100868.22;1715912;83;21605;-91
2022/06/26 08:27:32;;;;;;;4.03;3.62;;;;;;;26.24;100.00;100873.25;1762745;81;21050;-90
2022/06/26 08:30:00;;;;;;;3.98;3.67;;;;;;;26.27;100.00;100869.33;1762803;81;21154;-90
2022/06/26 08:32:27;;;;;;;4.05;3.65;;;;;;;26.33;100.00;100869.80;1762317;81;21045;-90
2022/06/26 08:34:55;;;;;;;5.15;3.83;;;;;;;26.34;100.00;100863.44;1762763;81;21011;-91
2022/06/26 08:37:22;;;;;;;4.40;3.80;;;;;;;26.35;100.00;100872.28;1762375;81;21045;-92
2022/06/26 08:39:49;;;;;;;6.35;3.47;;;;;;;26.44;100.00;100866.99;1762335;81;21579;-91
2022/06/26 08:42:18;;;;;;;3.60;3.30;;;;;;;26.64;100.00;100860.69;1761357;81;21133;-90
2022/06/26 08:44:46;;;;;;;4.17;3.77;;;;;;;26.84;100.00;100860.03;1743349;82;21054;-90
2022/06/26 08:47:18;;;;;;;4.50;3.67;;;;;;;27.01;100.00;100857.66;1762155;81;20974;-91
2022/06/26 08:49:47;;;;;;;4.33;4.03;;;;;;;26.96;100.00;100856.14;1758142;81;21023;-93
2022/06/26 08:52:18;;;;;;;3.60;3.40;;;;;;;26.85;100.00;100856.34;1761293;81;21020;-93
2022/06/26 08:54:46;;;;;;;3.50;3.27;;;;;;;26.81;100.00;100851.64;1756911;81;21154;-92
2022/06/26 08:57:15;;;;;;;4.50;4.10;;;;;;;26.82;100.00;100853.28;1742938;82;21003;-91
2022/06/26 08:59:43;;;;;;;4.03;3.70;;;;;;;26.78;100.00;100844.08;1761999;81;21492;-91
2022/06/26 09:02:12;;;;;;;4.67;3.90;;;;;;;26.74;100.00;100843.14;1761561;81;21010;-91
2022/06/26 09:04:40;;;;;;;3.75;3.45;;;;;;;26.78;100.00;100843.55;1742934;82;21054;-90
2022/06/26 09:07:12;;;;;;;4.28;3.60;;;;;;;26.76;100.00;100839.77;1762124;81;21018;-92
2022/06/26 09:09:40;;;;;;;9.68;3.67;;;;;;;26.68;100.00;100842.68;1761283;81;20994;-91
2022/06/26 09:12:08;;;;;;;5.25;3.58;;;;;;;26.59;100.00;100838.64;1743236;82;21085;-92
2022/06/26 09:14:35;;;;;;;7.08;3.83;;;;;;;26.54;100.00;100834.48;1761958;81;21013;-92
2022/06/26 09:17:05;;;;;;;11.28;3.98;;;;;;;26.64;100.00;100828.11;1761344;81;21045;-90
2022/06/26 09:19:36;;;;;;;3.92;3.60;;;;;;;26.87;100.00;100830.76;1743201;82;21199;-91
2022/06/26 09:22:15;;;;;;;3.83;3.37;;;;;;;27.16;100.00;100829.23;1761872;81;21319;-91
2022/06/26 09:24:56;;;;;;;4.42;3.15;;;;;;;27.47;100.00;100824.02;1762172;81;21042;-91
2022/06/26 09:27:23;;;;;;;;;;;;;;;27.77;100.00;100824.58;1764340;81;20978;-93
2022/06/26 09:29:56;;;;;;;3.80;3.40;;;;;;;28.05;100.00;100819.19;1761880;81;20147;-91
2022/06/26 09:32:27;;;;;;;5.35;3.50;;;;;;;28.18;100.00;100818.52;1722811;81;21143;-92
2022/06/26 09:34:54;;;;;;;4.00;3.70;;;;;;;28.25;100.00;100812.25;1721574;81;21012;-91
2022/06/26 09:37:23;;;;;;;5.55;4.12;;;;;;;28.14;100.00;100811.98;1721112;83;21025;-93
2022/06/26 09:40:03;;;;;;;4.95;4.20;;;;;;;27.86;100.00;100821.90;1721693;80;21076;-92
2022/06/26 09:42:34;;;;;;;6.85;3.85;;;;;;;27.46;100.00;100821.88;1740017;82;20939;-89
2022/06/26 09:45:03;;;;;;;4.28;3.75;;;;;;;27.32;100.00;100817.16;1744764;82;21247;-90
2022/06/26 09:47:35;;;;;;;4.72;3.33;;;;;;;27.42;100.00;100812.66;1744495;81;21532;-93
2022/06/26 09:50:08;;;;;;;4.40;3.52;;;;;;;27.60;100.00;100813.16;1744350;80;20967;-92
2022/06/26 09:52:36;;;;;;;4.00;3.60;;;;;;;27.71;100.00;100823.65;1744631;82;20994;-91
2022/06/26 09:55:06;;;;;;;4.60;3.25;;;;;;;27.65;100.00;100819.17;1744523;82;21452;-91
2022/06/26 09:57:37;;;;;;;5.92;3.10;;;;;;;27.42;100.00;100816.66;1745096;82;21547;-91
2022/06/26 10:00:06;;;;;;;4.58;2.87;;;;;;;27.18;100.00;100811.13;1744845;81;20946;-89
2022/06/26 10:06:25;;;;;;;4.03;3.20;;;;;;;27.28;89.03;100816.48;1744170;81;21563;-90
2022/06/26 10:08:17;;;;;;;3.60;3.30;;;;;;;27.50;100.00;100811.55;1741039;82;21073;-91
2022/06/26 10:10:49;;;;;;;3.70;2.95;;;;;;;27.62;100.00;100815.09;1744591;80;21165;-89
2022/06/26 10:13:18;;;;;;;5.08;3.30;;;;;;;27.55;96.58;100816.53;1744905;82;21300;-88
2022/06/26 10:15:54;;;;;;;5.10;3.08;;;;;;;27.45;96.84;100819.41;1744605;82;20994;-89
2022/06/26 10:18:52;;;;;;;4.72;3.22;;;;;;;27.46;98.33;100815.70;1744254;82;21011;-90
2022/06/26 10:21:20;;;;;;;4.92;3.35;;;;;;;27.67;100.00;100810.41;1741500;82;21014;-90
2022/06/26 10:23:48;;;;;;;6.65;3.92;;;;;;;28.01;100.00;100800.09;1744619;82;21128;-91
2022/06/26 10:26:22;;;;;;;4.55;3.85;;;;;;;28.29;100.00;100799.52;1744663;82;21026;-89
2022/06/26 10:29:08;;;;;;;3.98;3.40;;;;;;;28.48;95.19;100800.78;1744649;82;21006;-91
2022/06/26 10:31:47;;;;;;;3.98;3.67;;;;;;;28.53;93.25;100807.59;1731150;82;21113;-90
2022/06/26 10:34:25;;;;;;;3.52;3.22;;;;;;;28.62;93.53;100808.89;1731536;82;21893;-89
2022/06/26 10:37:20;;;;;;;3.85;3.37;;;;;;;28.67;88.36;100807.37;1731426;82;21852;-92
2022/06/26 10:39:58;;;;;;;4.35;3.33;;;;;;;28.63;78.76;100813.20;1731367;82;21089;-89
2022/06/26 10:45:36;;;;;;;6.42;4.08;;;;;;;28.07;81.99;100817.95;1763544;81;21738;-91
2022/06/26 10:48:18;;;;;;;7.47;3.83;;;;;;;27.86;89.62;100817.89;1763257;81;21028;-92
2022/06/26 10:51:01;;;;;;;7.28;3.83;;;;;;;27.83;100.00;100814.34;1760570;81;21146;-90
2022/06/26 10:53:37;;;;;;;4.47;3.98;;;;;;;27.81;100.00;100815.89;1762557;81;20997;-92
2022/06/26 10:56:07;;;;;;;5.65;3.67;;;;;;;27.78;100.00;100828.89;1759076;81;21476;-90
2022/06/26 10:58:42;;;;;;;11.30;4.20;;;;;;;27.69;100.00;100822.52;1762463;81;21563;-92
2022/06/26 11:01:11;;;;;;;5.62;3.92;;;;;;;27.58;100.00;100819.27;1762819;81;21500;-89
2022/06/26 11:03:42;;;;;;;4.92;3.80;;;;;;;27.50;98.27;100818.23;1763084;81;21813;-89
2022/06/26 11:06:15;;;;;;;7.05;4.03;;;;;;;27.55;100.00;100818.38;1762972;81;21116;-92
2022/06/26 11:08:52;;;;;;;5.92;4.45;;;;;;;27.65;100.00;100823.19;1763077;81;21033;-92
2022/06/26 11:11:31;;;;;;;6.75;4.80;;;;;;;27.71;100.00;100822.31;1762609;81;20962;-92
2022/06/26 11:14:02;;;;;;;5.40;4.12;;;;;;;27.60;100.00;100822.52;1762135;81;21073;-90
2022/06/26 11:16:43;;;;;;;4.50;3.92;;;;;;;27.43;100.00;100818.30;1762746;81;21215;-90
2022/06/26 11:19:26;;;;;;;4.42;3.47;;;;;;;27.28;100.00;100817.29;1763029;81;21042;-90
2022/06/26 11:22:11;;;;;;;5.37;4.12;;;;;;;27.16;100.00;100818.55;1762593;81;21018;-91
2022/06/26 11:24:52;;;;;;;8.73;4.20;;;;;;;27.08;100.00;100818.86;1762684;81;20994;-90
2022/06/26 11:27:23;;;;;;;5.20;3.70;;;;;;;27.11;100.00;100816.26;1762761;81;21634;-91
2022/06/26 11:29:52;;;;;;;4.17;3.70;;;;;;;27.16;100.00;100813.73;1762847;81;21155;-90
2022/06/26 11:32:24;;;;;;;5.92;3.60;;;;;;;27.21;100.00;100820.55;1762780;81;20981;-89
2022/06/26 11:34:54;;;;;;;4.45;3.72;;;;;;;27.21;100.00;100818.72;1762785;81;20973;-89
2022/06/26 11:37:35;;;;;;;7.05;3.90;;;;;;;27.18;100.00;100825.02;1762957;81;24155;-90
2022/06/26 11:40:17;;;;;;;6.53;3.80;;;;;;;27.14;98.55;100828.66;1762934;81;20954;-89
2022/06/26 11:42:46;;;;;;;3.85;3.50;;;;;;;27.04;100.00;100827.80;1762626;81;21184;-89
2022/06/26 11:45:24;;;;;;;6.97;3.90;;;;;;;26.96;98.16;100829.95;1762719;81;21001;-90
2022/06/26 11:47:53;;;;;;;3.45;3.20;;;;;;;26.88;100.00;100830.53;1762938;81;20965;-92
2022/06/26 11:50:23;;;;;;;6.37;3.90;;;;;;;26.81;100.00;100828.94;1762950;81;21061;-89
2022/06/26 11:52:54;;;;;;;4.00;3.67;;;;;;;26.72;100.00;100827.84;1763401;81;21006;-93
2022/06/26 11:56:03;;;;;;;3.62;3.30;;;;;;;26.68;100.00;100833.87;1762919;81;21246;-91
2022/06/26 11:58:35;;;;;;;5.42;3.40;;;;;;;26.64;100.00;100833.98;1762832;81;21006;-89
2022/06/26 12:01:10;;;;;;;3.55;2.95;;;;;;;26.61;99.96;100834.71;1763046;81;20990;-91
2022/06/26 12:03:50;;;;;;;3.60;2.98;;;;;;;26.59;99.77;100833.30;1762570;81;21013;-90
2022/06/26 12:06:40;;;;;;;5.15;3.22;;;;;;;26.65;98.87;100835.62;1762545;81;20998;-89
2022/06/26 12:09:20;;;;;;;3.65;3.35;;;;;;;26.83;92.62;100838.39;1762341;81;21923;-91
2022/06/26 12:11:51;;;;;;;6.58;3.47;;;;;;;27.13;91.62;100838.20;1762602;81;21081;-92
2022/06/26 12:14:21;;;;;;;6.85;4.12;;;;;;;27.42;91.82;100822.02;1762916;81;21453;-92
2022/06/26 12:16:58;;;;;;;6.58;3.70;;;;;;;27.68;87.33;100825.42;1762987;81;21001;-91
2022/06/26 12:19:38;;;;;;;5.47;3.58;;;;;;;27.93;91.62;100821.82;1762722;81;21803;-90
2022/06/26 12:22:05;;;;;;;6.83;4.15;;;;;;;28.20;85.63;100810.79;1742513;82;21173;-91
2022/06/26 12:24:32;;;;;;;5.17;4.25;;;;;;;28.45;83.59;100819.98;1744473;82;21050;-90
2022/06/26 12:26:59;;;;;;;7.08;3.85;;;;;;;28.48;75.81;100820.33;1744559;82;21014;-89
2022/06/26 12:29:26;;;;;;;7.45;4.12;;;;;;;28.46;76.01;100821.08;1744593;82;21444;-91
2022/06/26 12:31:53;;;;;;;7.00;4.15;;;;;;;28.51;82.33;100811.02;1744771;82;20951;-92
2022/06/26 12:34:20;;;;;;;4.45;3.90;;;;;;;28.67;83.73;100804.69;1744444;82;21117;-91
2022/06/26 12:36:48;;;;;;;6.58;4.20;;;;;;;28.81;77.91;100807.46;1744757;82;20983;-93
2022/06/26 12:39:16;;;;;;;4.85;4.10;;;;;;;28.94;85.26;100799.72;1744452;82;21117;-90
2022/06/26 12:41:44;;;;;;;4.08;3.67;;;;;;;29.07;82.24;100800.83;1744037;81;20956;-92
2022/06/26 12:44:11;;;;;;;6.10;3.80;;;;;;;29.18;76.92;100799.19;1743165;82;20987;-89
2022/06/26 12:46:38;;;;;;;4.53;3.83;;;;;;;29.28;71.63;100800.72;1742990;82;21107;-92
2022/06/26 12:49:05;;;;;;;5.35;3.85;;;;;;;29.40;70.31;100801.27;1743231;82;21002;-92
2022/06/26 12:51:33;;;;;;;4.50;3.45;;;;;;;29.41;73.43;100792.17;1743109;82;21168;-94
2022/06/26 12:54:00;;;;;;;6.85;4.28;;;;;;;29.34;72.40;100792.30;1743423;82;21505;-92
2022/06/26 12:56:28;;;;;;;8.25;3.42;;;;;;;29.11;73.42;100791.80;1743154;82;21003;-93
2022/06/26 12:58:55;;;;;;;6.55;3.98;;;;;;;28.80;76.94;100791.12;1743446;82;21421;-93
2022/06/26 13:01:23;;;;;;;5.30;4.03;;;;;;;28.68;75.12;100796.95;1743549;82;21011;-90
2022/06/26 13:03:50;;;;;;;7.90;4.40;;;;;;;28.73;78.80;100790.39;1743263;82;21554;-90
2022/06/26 13:06:17;;;;;;;7.28;3.65;;;;;;;28.87;75.42;100783.77;1743617;82;21046;-91
2022/06/26 13:08:44;;;;;;;7.15;3.98;;;;;;;29.06;79.83;100784.45;1743309;82;21132;-91
2022/06/26 13:11:23;;;;;;;6.05;3.83;;;;;;;29.24;76.02;100779.47;1743474;82;22043;-91
2022/06/26 13:13:53;;;;;;;8.20;3.80;;;;;;;29.36;82.27;100779.47;1743044;82;21010;-92
2022/06/26 13:16:20;;;;;;;5.62;3.90;;;;;;;29.38;74.25;100776.55;1743050;82;21591;-91